sensor_id;sensor_type;location;lat;lon;timestamp;temperature;humidity
19206;DHT22;59358;52.134;5.596;2023-03-01T00:00:16;-1.70;99.90
19206;DHT22;59358;52.134;5.596;2023-03-01T00:02:45;-1.70;99.90
19206;DHT22;59358;52.134;5.596;2023-03-01T00:05:11;-1.70;99.90
19206;DHT22;59358;52.134;5.596;2023-03-01T00:07:38;-1.70;99.90
19206;DHT22;59358;52.134;5.596;2023-03-01T00:10:05;-1.70;99.90
19206;DHT22;59358;52.134;5.596;2023-03-01T00:12:32;-1.80;99.90
19206;DHT22;59358;52.134;5.596;2023-03-01T00:14:59;-1.80;99.90
19206;DHT22;59358;52.134;5.596;2023-03-01T00:17:27;-1.90;99.90
19206;DHT22;59358;52.134;5.596;2023-03-01T00:19:55;-1.90;99.90
19206;DHT22;59358;52.134;5.596;2023-03-01T00:22:22;-2.00;99.90
19206;DHT22;59358;52.134;5.596;2023-03-01T00:24:49;-2.00;99.90
19206;DHT22;59358;52.134;5.596;2023-03-01T00:27:16;-2.00;99.90
19206;DHT22;59358;52.134;5.596;2023-03-01T00:29:43;-2.10;99.90
19206;DHT22;59358;52.134;5.596;2023-03-01T00:32:09;-2.10;99.90
19206;DHT22;59358;52.134;5.596;2023-03-01T00:34:36;-2.10;99.90
19206;DHT22;59358;52.134;5.596;2023-03-01T00:37:04;-2.10;99.90
19206;DHT22;59358;52.134;5.596;2023-03-01T00:39:32;-2.10;99.90
19206;DHT22;59358;52.134;5.596;2023-03-01T00:41:59;-2.10;99.90
19206;DHT22;59358;52.134;5.596;2023-03-01T00:44:26;-2.10;99.90
19206;DHT22;59358;52.134;5.596;2023-03-01T00:46:53;-2.20;99.90
19206;DHT22;59358;52.134;5.596;2023-03-01T00:49:20;-2.20;99.90
19206;DHT22;59358;52.134;5.596;2023-03-01T00:51:49;-2.30;99.90
19206;DHT22;59358;52.134;5.596;2023-03-01T00:54:17;-2.30;99.90
19206;DHT22;59358;52.134;5.596;2023-03-01T00:56:44;-2.30;99.90
19206;DHT22;59358;52.134;5.596;2023-03-01T00:59:11;-2.40;99.90
19206;DHT22;59358;52.134;5.596;2023-03-01T01:01:38;-2.40;99.90
19206;DHT22;59358;52.134;5.596;2023-03-01T01:04:06;-2.40;99.90
19206;DHT22;59358;52.134;5.596;2023-03-01T01:06:35;-2.40;99.90
19206;DHT22;59358;52.134;5.596;2023-03-01T01:09:03;-2.50;99.90
19206;DHT22;59358;52.134;5.596;2023-03-01T01:11:33;-2.50;99.90
19206;DHT22;59358;52.134;5.596;2023-03-01T01:14:00;-2.50;99.90
19206;DHT22;59358;52.134;5.596;2023-03-01T01:16:28;-2.50;99.90
19206;DHT22;59358;52.134;5.596;2023-03-01T01:18:55;-2.50;99.90
19206;DHT22;59358;52.134;5.596;2023-03-01T01:21:24;-2.50;99.90
19206;DHT22;59358;52.134;5.596;2023-03-01T01:23:51;-2.50;99.90
19206;DHT22;59358;52.134;5.596;2023-03-01T01:26:20;-2.60;99.90
19206;DHT22;59358;52.134;5.596;2023-03-01T01:28:49;-2.60;99.90
19206;DHT22;59358;52.134;5.596;2023-03-01T01:31:16;-2.60;99.90
19206;DHT22;59358;52.134;5.596;2023-03-01T01:33:44;-2.70;99.90
19206;DHT22;59358;52.134;5.596;2023-03-01T01:36:11;-2.60;99.90
19206;DHT22;59358;52.134;5.596;2023-03-01T01:38:38;-2.70;99.90
19206;DHT22;59358;52.134;5.596;2023-03-01T01:41:07;-2.70;99.90
19206;DHT22;59358;52.134;5.596;2023-03-01T01:43:39;-2.70;99.90
19206;DHT22;59358;52.134;5.596;2023-03-01T01:46:16;-2.70;99.90
19206;DHT22;59358;52.134;5.596;2023-03-01T01:48:52;-2.70;99.90
19206;DHT22;59358;52.134;5.596;2023-03-01T01:51:24;-2.70;99.90
19206;DHT22;59358;52.134;5.596;2023-03-01T01:53:55;-2.70;99.90
19206;DHT22;59358;52.134;5.596;2023-03-01T01:56:24;-2.60;99.90
19206;DHT22;59358;52.134;5.596;2023-03-01T01:58:52;-2.60;99.90
19206;DHT22;59358;52.134;5.596;2023-03-01T02:01:20;-2.70;99.90
19206;DHT22;59358;52.134;5.596;2023-03-01T02:03:48;-2.70;99.90
19206;DHT22;59358;52.134;5.596;2023-03-01T02:06:19;-2.70;99.90
19206;DHT22;59358;52.134;5.596;2023-03-01T02:08:49;-2.70;99.90
19206;DHT22;59358;52.134;5.596;2023-03-01T02:11:17;-2.70;99.90
19206;DHT22;59358;52.134;5.596;2023-03-01T02:13:46;-2.80;99.90
19206;DHT22;59358;52.134;5.596;2023-03-01T02:16:14;-2.70;99.90
19206;DHT22;59358;52.134;5.596;2023-03-01T02:18:43;-2.80;99.90
19206;DHT22;59358;52.134;5.596;2023-03-01T02:21:23;-2.70;99.90
19206;DHT22;59358;52.134;5.596;2023-03-01T02:23:53;-2.70;99.90
19206;DHT22;59358;52.134;5.596;2023-03-01T02:26:28;-2.70;99.90
19206;DHT22;59358;52.134;5.596;2023-03-01T02:28:58;-2.70;99.90
19206;DHT22;59358;52.134;5.596;2023-03-01T02:31:25;-2.80;99.90
19206;DHT22;59358;52.134;5.596;2023-03-01T02:34:13;-2.80;99.90
19206;DHT22;59358;52.134;5.596;2023-03-01T02:36:44;-2.90;99.90
19206;DHT22;59358;52.134;5.596;2023-03-01T02:39:15;-3.00;99.90
19206;DHT22;59358;52.134;5.596;2023-03-01T02:41:46;-3.00;99.90
19206;DHT22;59358;52.134;5.596;2023-03-01T02:44:16;-3.10;99.90
19206;DHT22;59358;52.134;5.596;2023-03-01T02:46:44;-3.10;99.90
19206;DHT22;59358;52.134;5.596;2023-03-01T02:49:20;-3.20;99.90
19206;DHT22;59358;52.134;5.596;2023-03-01T02:52:11;-3.20;99.90
19206;DHT22;59358;52.134;5.596;2023-03-01T02:54:47;-3.20;99.90
19206;DHT22;59358;52.134;5.596;2023-03-01T02:57:17;-3.20;99.90
19206;DHT22;59358;52.134;5.596;2023-03-01T02:59:45;-3.20;99.90
19206;DHT22;59358;52.134;5.596;2023-03-01T03:02:20;-3.10;99.90
19206;DHT22;59358;52.134;5.596;2023-03-01T03:05:02;-3.10;99.90
19206;DHT22;59358;52.134;5.596;2023-03-01T03:07:28;-3.20;99.90
19206;DHT22;59358;52.134;5.596;2023-03-01T03:09:56;-3.10;99.90
19206;DHT22;59358;52.134;5.596;2023-03-01T03:12:22;-3.20;99.90
19206;DHT22;59358;52.134;5.596;2023-03-01T03:14:51;-3.10;99.90
19206;DHT22;59358;52.134;5.596;2023-03-01T03:17:18;-3.10;99.90
19206;DHT22;59358;52.134;5.596;2023-03-01T03:19:44;-3.10;99.90
19206;DHT22;59358;52.134;5.596;2023-03-01T03:22:11;-3.10;99.90
19206;DHT22;59358;52.134;5.596;2023-03-01T03:24:38;-3.20;99.90
19206;DHT22;59358;52.134;5.596;2023-03-01T03:27:05;-3.10;99.90
19206;DHT22;59358;52.134;5.596;2023-03-01T03:29:33;-3.10;99.90
19206;DHT22;59358;52.134;5.596;2023-03-01T03:32:01;-3.10;99.90
19206;DHT22;59358;52.134;5.596;2023-03-01T03:34:28;-3.10;99.90
19206;DHT22;59358;52.134;5.596;2023-03-01T03:36:56;-3.10;99.90
19206;DHT22;59358;52.134;5.596;2023-03-01T03:39:25;-3.10;99.90
19206;DHT22;59358;52.134;5.596;2023-03-01T03:41:52;-3.20;99.90
19206;DHT22;59358;52.134;5.596;2023-03-01T03:44:19;-3.20;99.90
19206;DHT22;59358;52.134;5.596;2023-03-01T03:46:46;-3.20;99.90
19206;DHT22;59358;52.134;5.596;2023-03-01T03:49:14;-3.20;99.90
19206;DHT22;59358;52.134;5.596;2023-03-01T03:51:41;-3.20;99.90
19206;DHT22;59358;52.134;5.596;2023-03-01T03:54:08;-3.30;99.90
19206;DHT22;59358;52.134;5.596;2023-03-01T03:56:36;-3.30;99.90
19206;DHT22;59358;52.134;5.596;2023-03-01T03:59:03;-3.40;99.90
19206;DHT22;59358;52.134;5.596;2023-03-01T04:01:31;-3.40;99.90
19206;DHT22;59358;52.134;5.596;2023-03-01T04:03:58;-3.50;99.90
19206;DHT22;59358;52.134;5.596;2023-03-01T04:06:30;-3.60;99.90
19206;DHT22;59358;52.134;5.596;2023-03-01T04:08:58;-3.60;99.90
19206;DHT22;59358;52.134;5.596;2023-03-01T04:11:26;-3.50;99.90
19206;DHT22;59358;52.134;5.596;2023-03-01T04:13:55;-3.50;99.90
19206;DHT22;59358;52.134;5.596;2023-03-01T04:16:22;-3.50;99.90
19206;DHT22;59358;52.134;5.596;2023-03-01T04:18:48;-3.50;99.90
19206;DHT22;59358;52.134;5.596;2023-03-01T04:21:16;-3.50;99.90
19206;DHT22;59358;52.134;5.596;2023-03-01T04:23:44;-3.50;99.90
19206;DHT22;59358;52.134;5.596;2023-03-01T04:26:11;-3.50;99.90
19206;DHT22;59358;52.134;5.596;2023-03-01T04:28:39;-3.60;99.90
19206;DHT22;59358;52.134;5.596;2023-03-01T04:31:10;-3.60;99.90
19206;DHT22;59358;52.134;5.596;2023-03-01T04:33:40;-3.60;99.90
19206;DHT22;59358;52.134;5.596;2023-03-01T04:36:08;-3.70;99.90
19206;DHT22;59358;52.134;5.596;2023-03-01T04:38:36;-3.70;99.90
19206;DHT22;59358;52.134;5.596;2023-03-01T04:41:06;-3.70;99.90
19206;DHT22;59358;52.134;5.596;2023-03-01T04:43:33;-3.60;99.90
19206;DHT22;59358;52.134;5.596;2023-03-01T04:46:00;-3.60;99.90
19206;DHT22;59358;52.134;5.596;2023-03-01T04:48:29;-3.50;99.90
19206;DHT22;59358;52.134;5.596;2023-03-01T04:50:56;-3.50;99.90
19206;DHT22;59358;52.134;5.596;2023-03-01T04:53:22;-3.50;99.90
19206;DHT22;59358;52.134;5.596;2023-03-01T04:55:50;-3.40;99.90
19206;DHT22;59358;52.134;5.596;2023-03-01T04:58:18;-3.30;99.90
19206;DHT22;59358;52.134;5.596;2023-03-01T05:00:45;-3.30;99.90
19206;DHT22;59358;52.134;5.596;2023-03-01T05:03:12;-3.30;99.90
19206;DHT22;59358;52.134;5.596;2023-03-01T05:05:44;-3.30;99.90
19206;DHT22;59358;52.134;5.596;2023-03-01T05:08:12;-3.30;99.90
19206;DHT22;59358;52.134;5.596;2023-03-01T05:10:43;-3.30;99.90
19206;DHT22;59358;52.134;5.596;2023-03-01T05:13:11;-3.30;99.90
19206;DHT22;59358;52.134;5.596;2023-03-01T05:15:40;-3.40;99.90
19206;DHT22;59358;52.134;5.596;2023-03-01T05:18:07;-3.40;99.90
19206;DHT22;59358;52.134;5.596;2023-03-01T05:20:37;-3.50;99.90
19206;DHT22;59358;52.134;5.596;2023-03-01T05:23:04;-3.60;99.90
19206;DHT22;59358;52.134;5.596;2023-03-01T05:25:32;-3.60;99.90
19206;DHT22;59358;52.134;5.596;2023-03-01T05:28:00;-3.70;99.90
19206;DHT22;59358;52.134;5.596;2023-03-01T05:30:30;-3.70;99.90
19206;DHT22;59358;52.134;5.596;2023-03-01T05:32:58;-3.70;99.90
19206;DHT22;59358;52.134;5.596;2023-03-01T05:35:25;-3.70;99.90
19206;DHT22;59358;52.134;5.596;2023-03-01T05:37:53;-3.70;99.90
19206;DHT22;59358;52.134;5.596;2023-03-01T05:40:21;-3.70;99.90
19206;DHT22;59358;52.134;5.596;2023-03-01T05:42:52;-3.70;99.90
19206;DHT22;59358;52.134;5.596;2023-03-01T05:45:20;-3.70;99.90
19206;DHT22;59358;52.134;5.596;2023-03-01T05:47:48;-3.80;99.90
19206;DHT22;59358;52.134;5.596;2023-03-01T05:50:18;-3.70;99.90
19206;DHT22;59358;52.134;5.596;2023-03-01T05:52:47;-3.60;99.90
19206;DHT22;59358;52.134;5.596;2023-03-01T05:55:15;-3.60;99.90
19206;DHT22;59358;52.134;5.596;2023-03-01T05:57:42;-3.60;99.90
19206;DHT22;59358;52.134;5.596;2023-03-01T06:00:12;-3.50;99.90
19206;DHT22;59358;52.134;5.596;2023-03-01T06:02:39;-3.50;99.90
19206;DHT22;59358;52.134;5.596;2023-03-01T06:05:07;-3.50;99.90
19206;DHT22;59358;52.134;5.596;2023-03-01T06:07:35;-3.50;99.90
19206;DHT22;59358;52.134;5.596;2023-03-01T06:10:03;-3.40;99.90
19206;DHT22;59358;52.134;5.596;2023-03-01T06:12:31;-3.50;99.90
19206;DHT22;59358;52.134;5.596;2023-03-01T06:14:58;-3.50;99.90
19206;DHT22;59358;52.134;5.596;2023-03-01T06:17:25;-3.60;99.90
19206;DHT22;59358;52.134;5.596;2023-03-01T06:19:52;-3.60;99.90
19206;DHT22;59358;52.134;5.596;2023-03-01T06:22:19;-3.70;99.90
19206;DHT22;59358;52.134;5.596;2023-03-01T06:24:47;-3.70;99.90
19206;DHT22;59358;52.134;5.596;2023-03-01T06:27:14;-3.80;99.90
19206;DHT22;59358;52.134;5.596;2023-03-01T06:29:41;-3.80;99.90
19206;DHT22;59358;52.134;5.596;2023-03-01T06:32:08;-3.80;99.90
19206;DHT22;59358;52.134;5.596;2023-03-01T06:34:35;-3.80;99.90
19206;DHT22;59358;52.134;5.596;2023-03-01T06:37:01;-3.80;99.90
19206;DHT22;59358;52.134;5.596;2023-03-01T06:39:30;-3.80;99.90
19206;DHT22;59358;52.134;5.596;2023-03-01T06:41:59;-3.80;99.90
19206;DHT22;59358;52.134;5.596;2023-03-01T06:44:26;-3.80;99.90
19206;DHT22;59358;52.134;5.596;2023-03-01T06:46:53;-3.70;99.90
19206;DHT22;59358;52.134;5.596;2023-03-01T06:49:20;-3.70;99.90
19206;DHT22;59358;52.134;5.596;2023-03-01T06:51:47;-3.70;99.90
19206;DHT22;59358;52.134;5.596;2023-03-01T06:54:14;-3.70;99.90
19206;DHT22;59358;52.134;5.596;2023-03-01T06:56:41;-3.60;99.90
19206;DHT22;59358;52.134;5.596;2023-03-01T06:59:09;-3.40;99.90
19206;DHT22;59358;52.134;5.596;2023-03-01T07:01:36;-3.30;99.90
19206;DHT22;59358;52.134;5.596;2023-03-01T07:04:04;-3.20;99.90
19206;DHT22;59358;52.134;5.596;2023-03-01T07:06:31;-3.10;99.90
19206;DHT22;59358;52.134;5.596;2023-03-01T07:08:58;-3.00;99.90
19206;DHT22;59358;52.134;5.596;2023-03-01T07:11:25;-3.00;99.90
19206;DHT22;59358;52.134;5.596;2023-03-01T07:13:52;-2.90;99.90
19206;DHT22;59358;52.134;5.596;2023-03-01T07:16:20;-2.80;99.90
19206;DHT22;59358;52.134;5.596;2023-03-01T07:18:47;-2.80;99.90
19206;DHT22;59358;52.134;5.596;2023-03-01T07:21:15;-2.70;99.90
19206;DHT22;59358;52.134;5.596;2023-03-01T07:23:42;-2.50;99.90
19206;DHT22;59358;52.134;5.596;2023-03-01T07:26:09;-2.40;99.90
19206;DHT22;59358;52.134;5.596;2023-03-01T07:28:36;-2.20;99.90
19206;DHT22;59358;52.134;5.596;2023-03-01T07:31:05;-2.10;99.90
19206;DHT22;59358;52.134;5.596;2023-03-01T07:33:33;-2.00;99.90
19206;DHT22;59358;52.134;5.596;2023-03-01T07:36:05;-1.90;99.90
19206;DHT22;59358;52.134;5.596;2023-03-01T07:38:32;-1.80;99.90
19206;DHT22;59358;52.134;5.596;2023-03-01T07:41:00;-1.70;99.90
19206;DHT22;59358;52.134;5.596;2023-03-01T07:43:28;-1.60;99.90
19206;DHT22;59358;52.134;5.596;2023-03-01T07:45:58;-1.50;99.90
19206;DHT22;59358;52.134;5.596;2023-03-01T07:48:25;-1.40;99.90
19206;DHT22;59358;52.134;5.596;2023-03-01T07:50:53;-1.20;99.90
19206;DHT22;59358;52.134;5.596;2023-03-01T07:53:20;-1.00;99.90
19206;DHT22;59358;52.134;5.596;2023-03-01T07:55:47;-0.80;99.90
19206;DHT22;59358;52.134;5.596;2023-03-01T07:58:14;-0.60;99.90
19206;DHT22;59358;52.134;5.596;2023-03-01T08:00:41;-0.50;99.90
19206;DHT22;59358;52.134;5.596;2023-03-01T08:03:08;-0.30;99.90
19206;DHT22;59358;52.134;5.596;2023-03-01T08:05:37;-0.10;99.90
19206;DHT22;59358;52.134;5.596;2023-03-01T08:08:05;0.10;99.90
19206;DHT22;59358;52.134;5.596;2023-03-01T08:10:32;0.20;99.90
19206;DHT22;59358;52.134;5.596;2023-03-01T08:12:59;0.40;99.90
19206;DHT22;59358;52.134;5.596;2023-03-01T08:15:26;0.60;99.90
19206;DHT22;59358;52.134;5.596;2023-03-01T08:17:53;0.70;99.90
19206;DHT22;59358;52.134;5.596;2023-03-01T08:20:20;0.90;99.90
19206;DHT22;59358;52.134;5.596;2023-03-01T08:22:47;1.00;99.90
19206;DHT22;59358;52.134;5.596;2023-03-01T08:25:15;1.30;99.90
19206;DHT22;59358;52.134;5.596;2023-03-01T08:27:42;1.40;99.90
19206;DHT22;59358;52.134;5.596;2023-03-01T08:30:10;1.60;99.90
19206;DHT22;59358;52.134;5.596;2023-03-01T08:32:37;1.70;99.90
19206;DHT22;59358;52.134;5.596;2023-03-01T08:35:04;1.80;99.90
19206;DHT22;59358;52.134;5.596;2023-03-01T08:37:31;1.90;99.90
19206;DHT22;59358;52.134;5.596;2023-03-01T08:39:58;2.00;99.90
19206;DHT22;59358;52.134;5.596;2023-03-01T08:42:27;2.20;99.90
19206;DHT22;59358;52.134;5.596;2023-03-01T08:44:53;2.30;99.90
19206;DHT22;59358;52.134;5.596;2023-03-01T08:47:22;2.50;99.90
19206;DHT22;59358;52.134;5.596;2023-03-01T08:49:49;2.60;99.90
19206;DHT22;59358;52.134;5.596;2023-03-01T08:52:16;2.80;99.90
19206;DHT22;59358;52.134;5.596;2023-03-01T08:54:43;3.00;99.90
19206;DHT22;59358;52.134;5.596;2023-03-01T08:57:10;3.00;99.90
19206;DHT22;59358;52.134;5.596;2023-03-01T08:59:39;3.10;99.90
19206;DHT22;59358;52.134;5.596;2023-03-01T09:02:11;3.20;99.90
19206;DHT22;59358;52.134;5.596;2023-03-01T09:04:38;3.50;99.90
19206;DHT22;59358;52.134;5.596;2023-03-01T09:07:05;3.60;99.90
19206;DHT22;59358;52.134;5.596;2023-03-01T09:09:32;3.70;99.90
19206;DHT22;59358;52.134;5.596;2023-03-01T09:12:00;3.80;99.90
19206;DHT22;59358;52.134;5.596;2023-03-01T09:14:27;4.00;99.90
19206;DHT22;59358;52.134;5.596;2023-03-01T09:16:56;4.10;99.90
19206;DHT22;59358;52.134;5.596;2023-03-01T09:19:23;4.30;99.90
19206;DHT22;59358;52.134;5.596;2023-03-01T09:21:50;4.40;99.90
19206;DHT22;59358;52.134;5.596;2023-03-01T09:24:20;4.70;99.90
19206;DHT22;59358;52.134;5.596;2023-03-01T09:26:47;4.80;99.90
19206;DHT22;59358;52.134;5.596;2023-03-01T09:29:14;4.80;99.90
19206;DHT22;59358;52.134;5.596;2023-03-01T09:31:42;4.90;99.90
19206;DHT22;59358;52.134;5.596;2023-03-01T09:34:10;5.00;99.90
19206;DHT22;59358;52.134;5.596;2023-03-01T09:36:39;5.10;99.90
19206;DHT22;59358;52.134;5.596;2023-03-01T09:39:06;5.10;99.90
19206;DHT22;59358;52.134;5.596;2023-03-01T09:41:45;5.10;99.90
19206;DHT22;59358;52.134;5.596;2023-03-01T09:44:21;5.10;99.90
19206;DHT22;59358;52.134;5.596;2023-03-01T09:46:50;5.30;99.90
19206;DHT22;59358;52.134;5.596;2023-03-01T09:49:22;5.40;99.90
19206;DHT22;59358;52.134;5.596;2023-03-01T09:51:55;5.50;99.90
19206;DHT22;59358;52.134;5.596;2023-03-01T09:54:26;5.60;99.90
19206;DHT22;59358;52.134;5.596;2023-03-01T09:57:11;5.60;99.90
19206;DHT22;59358;52.134;5.596;2023-03-01T10:00:01;5.80;99.90
19206;DHT22;59358;52.134;5.596;2023-03-01T10:02:37;5.90;99.90
19206;DHT22;59358;52.134;5.596;2023-03-01T10:05:19;5.90;99.90
19206;DHT22;59358;52.134;5.596;2023-03-01T10:07:59;5.90;99.90
19206;DHT22;59358;52.134;5.596;2023-03-01T10:10:28;6.00;99.90
19206;DHT22;59358;52.134;5.596;2023-03-01T10:13:00;6.00;99.90
19206;DHT22;59358;52.134;5.596;2023-03-01T10:15:34;6.00;99.90
19206;DHT22;59358;52.134;5.596;2023-03-01T10:18:06;6.10;99.90
19206;DHT22;59358;52.134;5.596;2023-03-01T10:20:44;6.00;99.90
19206;DHT22;59358;52.134;5.596;2023-03-01T10:23:13;6.00;99.90
19206;DHT22;59358;52.134;5.596;2023-03-01T10:25:47;5.90;99.90
19206;DHT22;59358;52.134;5.596;2023-03-01T10:28:23;6.10;99.90
19206;DHT22;59358;52.134;5.596;2023-03-01T10:30:52;6.20;99.90
19206;DHT22;59358;52.134;5.596;2023-03-01T10:33:22;6.20;99.90
19206;DHT22;59358;52.134;5.596;2023-03-01T10:35:51;6.20;99.90
19206;DHT22;59358;52.134;5.596;2023-03-01T10:38:19;6.40;99.90
19206;DHT22;59358;52.134;5.596;2023-03-01T10:40:51;6.50;99.90
19206;DHT22;59358;52.134;5.596;2023-03-01T10:43:19;6.60;99.90
19206;DHT22;59358;52.134;5.596;2023-03-01T10:45:47;6.70;99.70
19206;DHT22;59358;52.134;5.596;2023-03-01T10:48:16;6.60;98.80
19206;DHT22;59358;52.134;5.596;2023-03-01T10:50:45;6.50;99.60
19206;DHT22;59358;52.134;5.596;2023-03-01T10:53:28;6.50;99.80
19206;DHT22;59358;52.134;5.596;2023-03-01T10:56:02;6.50;98.60
19206;DHT22;59358;52.134;5.596;2023-03-01T10:58:31;6.50;98.70
19206;DHT22;59358;52.134;5.596;2023-03-01T11:00:59;6.40;98.60
19206;DHT22;59358;52.134;5.596;2023-03-01T11:03:28;6.50;98.00
19206;DHT22;59358;52.134;5.596;2023-03-01T11:06:00;6.60;97.60
19206;DHT22;59358;52.134;5.596;2023-03-01T11:08:34;6.60;97.80
19206;DHT22;59358;52.134;5.596;2023-03-01T11:11:09;6.60;98.20
19206;DHT22;59358;52.134;5.596;2023-03-01T11:13:52;6.90;99.20
19206;DHT22;59358;52.134;5.596;2023-03-01T11:16:25;6.90;98.90
19206;DHT22;59358;52.134;5.596;2023-03-01T11:18:57;7.00;98.40
19206;DHT22;59358;52.134;5.596;2023-03-01T11:21:26;7.20;99.30
19206;DHT22;59358;52.134;5.596;2023-03-01T11:23:58;7.10;98.40
19206;DHT22;59358;52.134;5.596;2023-03-01T11:26:28;7.20;98.10
19206;DHT22;59358;52.134;5.596;2023-03-01T11:29:02;7.30;97.70
19206;DHT22;59358;52.134;5.596;2023-03-01T11:31:31;7.20;98.10
19206;DHT22;59358;52.134;5.596;2023-03-01T11:34:05;7.30;97.30
19206;DHT22;59358;52.134;5.596;2023-03-01T11:36:40;7.30;97.50
19206;DHT22;59358;52.134;5.596;2023-03-01T11:39:20;7.30;97.10
19206;DHT22;59358;52.134;5.596;2023-03-01T11:42:00;7.30;97.60
19206;DHT22;59358;52.134;5.596;2023-03-01T11:44:31;7.30;97.90
19206;DHT22;59358;52.134;5.596;2023-03-01T11:47:13;7.40;97.30
19206;DHT22;59358;52.134;5.596;2023-03-01T11:50:02;7.40;97.60
19206;DHT22;59358;52.134;5.596;2023-03-01T11:52:40;7.80;98.80
19206;DHT22;59358;52.134;5.596;2023-03-01T11:55:32;7.80;96.90
19206;DHT22;59358;52.134;5.596;2023-03-01T11:58:27;7.70;96.20
19206;DHT22;59358;52.134;5.596;2023-03-01T12:01:14;7.80;96.40
19206;DHT22;59358;52.134;5.596;2023-03-01T12:06:50;7.70;96.70
19206;DHT22;59358;52.134;5.596;2023-03-01T12:12:30;7.90;95.80
19206;DHT22;59358;52.134;5.596;2023-03-01T12:15:22;7.70;95.10
19206;DHT22;59358;52.134;5.596;2023-03-01T12:21:02;7.60;95.20
19206;DHT22;59358;52.134;5.596;2023-03-01T12:23:48;7.80;96.30
19206;DHT22;59358;52.134;5.596;2023-03-01T12:26:26;8.00;96.90
19206;DHT22;59358;52.134;5.596;2023-03-01T12:29:10;7.90;95.70
19206;DHT22;59358;52.134;5.596;2023-03-01T12:32:06;8.10;96.50
19206;DHT22;59358;52.134;5.596;2023-03-01T12:34:55;8.00;95.40
19206;DHT22;59358;52.134;5.596;2023-03-01T12:37:31;7.90;95.70
19206;DHT22;59358;52.134;5.596;2023-03-01T12:40:21;7.80;95.80
19206;DHT22;59358;52.134;5.596;2023-03-01T12:42:58;7.90;95.60
19206;DHT22;59358;52.134;5.596;2023-03-01T12:45:45;8.10;96.00
19206;DHT22;59358;52.134;5.596;2023-03-01T12:48:28;8.10;94.90
19206;DHT22;59358;52.134;5.596;2023-03-01T12:51:02;7.90;94.00
19206;DHT22;59358;52.134;5.596;2023-03-01T12:53:31;7.80;95.20
19206;DHT22;59358;52.134;5.596;2023-03-01T12:56:01;7.90;95.70
19206;DHT22;59358;52.134;5.596;2023-03-01T12:58:31;8.00;94.70
19206;DHT22;59358;52.134;5.596;2023-03-01T13:01:16;8.10;95.70
19206;DHT22;59358;52.134;5.596;2023-03-01T13:03:59;8.10;93.60
19206;DHT22;59358;52.134;5.596;2023-03-01T13:06:35;7.80;93.70
19206;DHT22;59358;52.134;5.596;2023-03-01T13:09:13;8.00;94.20
19206;DHT22;59358;52.134;5.596;2023-03-01T13:11:42;8.20;94.00
19206;DHT22;59358;52.134;5.596;2023-03-01T13:14:37;8.10;93.90
19206;DHT22;59358;52.134;5.596;2023-03-01T13:20:13;8.20;93.90
19206;DHT22;59358;52.134;5.596;2023-03-01T13:22:41;8.20;94.50
19206;DHT22;59358;52.134;5.596;2023-03-01T13:25:16;8.40;94.50
19206;DHT22;59358;52.134;5.596;2023-03-01T13:27:44;8.40;94.10
19206;DHT22;59358;52.134;5.596;2023-03-01T13:30:42;8.50;94.30
19206;DHT22;59358;52.134;5.596;2023-03-01T13:33:34;8.60;94.30
19206;DHT22;59358;52.134;5.596;2023-03-01T13:36:08;8.40;93.20
19206;DHT22;59358;52.134;5.596;2023-03-01T13:38:38;8.40;93.90
19206;DHT22;59358;52.134;5.596;2023-03-01T13:41:07;8.30;94.00
19206;DHT22;59358;52.134;5.596;2023-03-01T13:43:35;8.30;93.00
19206;DHT22;59358;52.134;5.596;2023-03-01T13:46:09;8.60;93.50
19206;DHT22;59358;52.134;5.596;2023-03-01T13:48:38;8.60;93.60
19206;DHT22;59358;52.134;5.596;2023-03-01T13:51:09;8.50;93.90
19206;DHT22;59358;52.134;5.596;2023-03-01T13:53:40;8.60;92.40
19206;DHT22;59358;52.134;5.596;2023-03-01T13:56:12;8.70;93.10
19206;DHT22;59358;52.134;5.596;2023-03-01T13:58:48;8.80;92.70
19206;DHT22;59358;52.134;5.596;2023-03-01T14:01:25;8.60;92.30
19206;DHT22;59358;52.134;5.596;2023-03-01T14:03:53;8.40;93.50
19206;DHT22;59358;52.134;5.596;2023-03-01T14:06:23;8.40;93.00
19206;DHT22;59358;52.134;5.596;2023-03-01T14:08:59;8.40;93.30
19206;DHT22;59358;52.134;5.596;2023-03-01T14:11:49;8.50;93.30
19206;DHT22;59358;52.134;5.596;2023-03-01T14:14:34;8.60;93.40
19206;DHT22;59358;52.134;5.596;2023-03-01T14:17:16;8.50;93.70
19206;DHT22;59358;52.134;5.596;2023-03-01T14:19:56;8.40;92.80
19206;DHT22;59358;52.134;5.596;2023-03-01T14:22:27;8.40;94.00
19206;DHT22;59358;52.134;5.596;2023-03-01T14:24:56;8.60;93.80
19206;DHT22;59358;52.134;5.596;2023-03-01T14:27:25;8.80;93.10
19206;DHT22;59358;52.134;5.596;2023-03-01T14:29:57;8.70;93.40
19206;DHT22;59358;52.134;5.596;2023-03-01T14:32:26;8.70;93.90
19206;DHT22;59358;52.134;5.596;2023-03-01T14:34:53;8.70;92.80
19206;DHT22;59358;52.134;5.596;2023-03-01T14:37:22;8.80;93.40
19206;DHT22;59358;52.134;5.596;2023-03-01T14:39:52;8.70;94.00
19206;DHT22;59358;52.134;5.596;2023-03-01T14:42:21;8.70;94.30
19206;DHT22;59358;52.134;5.596;2023-03-01T14:44:50;8.90;94.20
19206;DHT22;59358;52.134;5.596;2023-03-01T14:47:25;8.90;93.80
19206;DHT22;59358;52.134;5.596;2023-03-01T14:49:57;8.90;94.90
19206;DHT22;59358;52.134;5.596;2023-03-01T14:52:31;9.00;94.10
19206;DHT22;59358;52.134;5.596;2023-03-01T14:55:03;8.90;93.60
19206;DHT22;59358;52.134;5.596;2023-03-01T14:57:30;8.70;93.40
19206;DHT22;59358;52.134;5.596;2023-03-01T14:59:59;8.80;93.90
19206;DHT22;59358;52.134;5.596;2023-03-01T15:02:30;8.70;93.60
19206;DHT22;59358;52.134;5.596;2023-03-01T15:05:00;8.80;94.80
19206;DHT22;59358;52.134;5.596;2023-03-01T15:07:30;8.90;94.60
19206;DHT22;59358;52.134;5.596;2023-03-01T15:09:58;9.20;94.10
19206;DHT22;59358;52.134;5.596;2023-03-01T15:12:38;9.20;93.30
19206;DHT22;59358;52.134;5.596;2023-03-01T15:15:37;9.10;93.90
19206;DHT22;59358;52.134;5.596;2023-03-01T15:18:13;9.00;93.70
19206;DHT22;59358;52.134;5.596;2023-03-01T15:20:44;9.00;94.10
19206;DHT22;59358;52.134;5.596;2023-03-01T15:23:19;9.20;94.00
19206;DHT22;59358;52.134;5.596;2023-03-01T15:25:47;9.00;93.60
19206;DHT22;59358;52.134;5.596;2023-03-01T15:28:24;9.10;94.00
19206;DHT22;59358;52.134;5.596;2023-03-01T15:30:55;8.80;93.60
19206;DHT22;59358;52.134;5.596;2023-03-01T15:33:32;8.90;94.00
19206;DHT22;59358;52.134;5.596;2023-03-01T15:35:59;8.90;93.70
19206;DHT22;59358;52.134;5.596;2023-03-01T15:38:32;8.90;94.50
19206;DHT22;59358;52.134;5.596;2023-03-01T15:41:02;9.20;94.40
19206;DHT22;59358;52.134;5.596;2023-03-01T15:43:45;9.60;94.50
19206;DHT22;59358;52.134;5.596;2023-03-01T15:46:20;9.90;93.90
19206;DHT22;59358;52.134;5.596;2023-03-01T15:48:51;10.10;93.80
19206;DHT22;59358;52.134;5.596;2023-03-01T15:51:23;10.20;93.60
19206;DHT22;59358;52.134;5.596;2023-03-01T15:53:54;10.20;92.50
19206;DHT22;59358;52.134;5.596;2023-03-01T15:56:21;10.20;92.60
19206;DHT22;59358;52.134;5.596;2023-03-01T15:58:50;10.10;92.90
19206;DHT22;59358;52.134;5.596;2023-03-01T16:01:17;10.00;93.30
19206;DHT22;59358;52.134;5.596;2023-03-01T16:03:45;9.90;93.10
19206;DHT22;59358;52.134;5.596;2023-03-01T16:06:12;10.50;92.30
19206;DHT22;59358;52.134;5.596;2023-03-01T16:08:39;10.40;92.60
19206;DHT22;59358;52.134;5.596;2023-03-01T16:11:13;10.40;92.60